Terminal Aerodrome Forecast
Issued by NWS Springfield, MO

Home | Current Version | Previous Version | Text Only | Print | Product List | Glossary On
Versions: 1 2 3 4 5 6 7 8 9 10 11 12 13 14 15 16 17 18 19 20 21 22 23 24 25
000
FTUS43 KSGF 302200 AAC
TAFSGF
TAF AMD
KSGF 302213Z 3022/3118 32010G20KT 3SM -TSRA BR SCT030CB OVC040
      TEMPO 3022/3023 1SM -TSRA BR OVC030CB
     FM310000 16005KT P6SM SCT080
     FM311300 19008KT 6SM BR SKC
     FM311600 19010KT P6SM SKC=

USA.gov is the U.S. government's official web portal to all federal, state and local government web resources and services.